To NAV CANADA Home Page Login to a new session Search on AWWS site Feedback and Comments Disclaimer Vers la page française équivalente Tips FAQ What's new on the site To the Forecasts and Observations / NOTAM section To "File a Flight Plan" website Publications and other links Update of the User's profile FIC Telephone Numbers My Weather Data Folder Route Weather Data Regional Weather Data Local Weather Data To the Forecasts and Observations / NOTAM section
Request Generated 04/24/2014 at 17:59:45 UTC . Weather information available at that time is displayed.

METAR/TAF

HALIFAX/STANFIELD INTL/NS    

SPECI CYHZ 241715Z 04011KT 4SM SHRAPL BR OVC009 03/01 A2932 RMK SF8
SLP934=
METAR CYHZ 241700Z 05011G16KT 4SM RA BR OVC009 03/01 A2932 RMK SF8
SLP933=
METAR CYHZ 241600Z CCA 06013G19KT 4SM RA BR OVC009 03/02 A2930 RMK
SF8 /R10/ SLP926=
METAR CYHZ 241600Z 06013G19KT 4SM RA BR OVC009 03/02 A2930 RMK SF8
SLP926=
METAR CYHZ 241500Z 08011G18KT 4SM RA BR OVC008 03/02 A2929 RMK SF8
CLG VRB 5-11 SLP922=

TAF CYHZ 241738Z 2418/2518 04012G22KT 4SM -RA BR BKN007 OVC015 TEMPO
2418/2422 6SM -SHRAPL BR SCT007 OVC015
FM242200 02015G25KT 3SM -RA BR OVC008 TEMPO 2422/2504 6SM -RA BR
OVC010 PROB40 2422/2504 3SM -SNRA -PL BR
FM250400 35017G27KT 4SM -SNRA OVC010
FM250800 35018G28KT 6SM -DZ BR OVC012
FM251100 34018G28KT P6SM OVC020
RMK NXT FCST BY 242100Z=
Your time UTC time
Weather data provided by Environment Canada and NAV CANADA